Hazelton, North Dakota
Current Conditions -  °F | °C
As of 12:15 AM on Saturday 29 Nov 2014 (Local Time) from K7L2 Reporting Station
Scattered Clouds Scattered Clouds  
Wind Chill:   Ceiling: Unl
Heat Index: 18°   Visibility: 10mi
Dew Point: 18°   Wind: 9mph
Humidity: 100%   Direction: 130°SE
Pressure: 29.42"   Gusts: NA
Location:  46.48°N, 100.28°W
Report Text: K7L2 290615Z AUTO 13008KT 10SM SCT110 M08/M08 A2942 RMK AO2
Loading
Personal Weather Stations






























Interactive Weather Map New forecast layout! Learn more

10-Day Weather Forecast

Advertisements
Track Severe Weather on mobile